createdAt,value
2024-02-04T00:00:06.679Z,7.75
2024-02-04T00:02:34.122Z,7.28
2024-02-04T00:05:00.801Z,8.95
2024-02-04T00:07:28.116Z,8.13
2024-02-04T00:09:54.799Z,5.63
2024-02-04T00:12:22.611Z,6.63
2024-02-04T00:14:50.963Z,9.13
2024-02-04T00:22:11.162Z,5.00
2024-02-04T00:24:37.922Z,6.70
2024-02-04T00:27:04.755Z,7.00
2024-02-04T00:29:31.404Z,8.90
2024-02-04T00:31:57.984Z,6.72
2024-02-04T00:34:24.654Z,7.90
2024-02-04T00:36:51.308Z,5.32
2024-02-04T00:39:17.966Z,7.63
2024-02-04T00:41:44.553Z,6.88
2024-02-04T00:44:11.118Z,8.38
2024-02-04T00:46:37.686Z,6.80
2024-02-04T00:49:04.495Z,6.82
2024-02-04T00:51:31.406Z,5.60
2024-02-04T00:53:58.038Z,6.78
2024-02-04T00:56:24.621Z,5.30
2024-02-04T00:58:51.208Z,5.38
2024-02-04T01:01:18.427Z,6.63
2024-02-04T01:03:45.264Z,6.88
2024-02-04T01:06:11.983Z,6.22
2024-02-04T01:08:38.940Z,6.32
2024-02-04T01:11:06.837Z,5.13
2024-02-04T01:13:33.783Z,5.55
2024-02-04T01:16:00.546Z,4.85
2024-02-04T01:18:27.368Z,5.07
2024-02-04T01:20:54.011Z,4.47
2024-02-04T01:23:21.117Z,4.95
2024-02-04T01:25:47.806Z,4.40
2024-02-04T01:28:14.456Z,4.53
2024-02-04T01:30:41.082Z,4.75
2024-02-04T01:33:07.860Z,3.72
2024-02-04T01:35:34.512Z,4.30
2024-02-04T01:38:01.141Z,5.70
2024-02-04T01:40:27.732Z,3.97
2024-02-04T01:42:54.393Z,3.78
2024-02-04T01:45:21.073Z,4.03
2024-02-04T01:47:47.842Z,4.03
2024-02-04T01:50:15.580Z,3.05
2024-02-04T01:52:43.772Z,5.45
2024-02-04T01:55:10.645Z,4.65
2024-02-04T01:57:37.551Z,4.15
2024-02-04T02:00:05.549Z,3.53
2024-02-04T02:02:35.399Z,3.67
2024-02-04T02:05:02.502Z,3.35
2024-02-04T02:07:29.536Z,3.47
2024-02-04T02:09:56.501Z,3.80
2024-02-04T02:12:40.769Z,3.08
2024-02-04T02:15:15.362Z,2.50
2024-02-04T02:17:58.771Z,4.05
2024-02-04T02:20:37.716Z,2.97
2024-02-04T02:23:04.247Z,2.60
2024-02-04T02:25:32.558Z,3.80
2024-02-04T02:30:25.976Z,3.50
2024-02-04T02:32:52.796Z,3.80
2024-02-04T02:35:20.701Z,3.75
2024-02-04T02:38:11.888Z,2.60
2024-02-04T02:40:46.503Z,3.00
2024-02-04T02:43:14.607Z,3.05
2024-02-04T02:45:43.777Z,2.78
2024-02-04T02:48:12.134Z,2.88
2024-02-04T02:50:39.396Z,3.03
2024-02-04T02:53:06.484Z,1.90
2024-02-04T02:55:33.103Z,2.70
2024-02-04T02:57:59.963Z,2.42
2024-02-04T03:00:26.739Z,2.92
2024-02-04T03:02:53.410Z,3.50
2024-02-04T03:05:20.123Z,2.25
2024-02-04T03:07:46.694Z,6.65
2024-02-04T03:10:13.598Z,6.43
2024-02-04T03:12:40.364Z,6.65
2024-02-04T03:15:07.242Z,3.75
2024-02-04T03:17:35.254Z,3.92
2024-02-04T03:20:02.169Z,4.82
2024-02-04T03:22:28.962Z,4.45
2024-02-04T03:24:55.610Z,5.22
2024-02-04T03:27:22.372Z,6.78
2024-02-04T03:29:49.041Z,6.30
2024-02-04T03:32:15.648Z,5.43
2024-02-04T03:34:42.739Z,3.95
2024-02-04T03:37:09.539Z,4.93
2024-02-04T03:39:36.251Z,3.65
2024-02-04T03:42:02.873Z,2.15
2024-02-04T03:44:29.431Z,3.78
2024-02-04T03:46:55.988Z,3.20
2024-02-04T03:49:22.698Z,2.78
2024-02-04T03:51:49.377Z,2.75
2024-02-04T03:54:16.031Z,2.40
2024-02-04T03:56:42.726Z,4.55
2024-02-04T03:59:12.052Z,2.35
2024-02-04T04:01:39.283Z,3.05
2024-02-04T04:04:06.626Z,7.45
2024-02-04T04:06:33.367Z,11.48
2024-02-04T04:09:00.509Z,12.05
2024-02-04T04:11:27.297Z,11.77
2024-02-04T04:13:53.951Z,9.68
2024-02-04T04:16:23.877Z,10.27
2024-02-04T04:18:51.127Z,9.82
2024-02-04T04:21:18.139Z,8.70
2024-02-04T04:23:46.192Z,8.02
2024-02-04T04:26:12.846Z,7.00
2024-02-04T04:28:39.411Z,7.40
2024-02-04T04:31:06.211Z,7.13
2024-02-04T04:33:33.090Z,6.32
2024-02-04T04:35:59.953Z,7.43
2024-02-04T04:38:26.541Z,7.22
2024-02-04T04:40:53.267Z,6.38
2024-02-04T04:43:20.063Z,5.07
2024-02-04T04:45:46.794Z,3.53
2024-02-04T04:48:13.587Z,4.85
2024-02-04T04:50:40.235Z,3.53
2024-02-04T04:53:06.829Z,3.30
2024-02-04T04:55:33.434Z,4.47
2024-02-04T04:58:00.149Z,5.18
2024-02-04T05:00:26.855Z,3.95
2024-02-04T05:02:53.480Z,4.35
2024-02-04T05:05:20.141Z,3.85
2024-02-04T05:07:48.215Z,5.80
2024-02-04T05:10:15.122Z,3.17
2024-02-04T05:12:42.078Z,2.85
2024-02-04T05:15:09.502Z,2.65
2024-02-04T05:17:36.529Z,4.07
2024-02-04T05:20:06.289Z,5.60
2024-02-04T05:22:32.836Z,4.10
2024-02-04T05:24:59.872Z,3.38
2024-02-04T05:27:27.226Z,3.45
2024-02-04T05:29:53.929Z,3.40
2024-02-04T05:32:20.530Z,2.95
2024-02-04T05:34:47.314Z,2.85
2024-02-04T05:37:17.385Z,2.58
2024-02-04T05:39:44.013Z,3.38
2024-02-04T05:42:10.638Z,2.42
2024-02-04T05:44:37.267Z,2.97
2024-02-04T05:47:04.024Z,4.40
2024-02-04T05:49:30.798Z,2.45
2024-02-04T05:51:57.461Z,4.57
2024-02-04T05:54:24.472Z,3.58
2024-02-04T05:56:51.089Z,3.88
2024-02-04T05:59:17.821Z,3.75
2024-02-04T06:01:45.935Z,2.20
2024-02-04T06:04:12.903Z,3.63
2024-02-04T06:06:39.735Z,4.90
2024-02-04T06:09:06.486Z,3.72
2024-02-04T06:11:33.094Z,3.80
2024-02-04T06:13:59.644Z,3.90
2024-02-04T06:16:27.360Z,6.25
2024-02-04T06:18:57.052Z,6.28
2024-02-04T06:21:23.957Z,4.10
2024-02-04T06:23:50.554Z,3.53
2024-02-04T06:26:17.118Z,4.55
2024-02-04T06:28:47.475Z,4.50
2024-02-04T06:31:14.835Z,8.38
2024-02-04T06:33:41.665Z,5.40
2024-02-04T06:36:11.953Z,6.65
2024-02-04T06:38:38.590Z,4.72
2024-02-04T06:41:05.365Z,6.50
2024-02-04T06:43:35.561Z,5.50
2024-02-04T06:46:03.866Z,4.15
2024-02-04T06:48:30.651Z,4.90
2024-02-04T06:50:57.342Z,6.57
2024-02-04T06:53:23.957Z,4.47
2024-02-04T06:55:50.513Z,5.35
2024-02-04T06:58:17.072Z,6.70
2024-02-04T07:00:43.790Z,8.10
2024-02-04T07:03:11.024Z,6.00
2024-02-04T07:05:38.594Z,7.72
2024-02-04T07:08:05.364Z,7.30
2024-02-04T07:10:32.005Z,6.95
2024-02-04T07:12:58.638Z,7.68
2024-02-04T07:15:25.867Z,7.68
2024-02-04T07:17:52.642Z,6.50
2024-02-04T07:20:19.990Z,7.10
2024-02-04T07:22:46.784Z,6.50
2024-02-04T07:25:13.480Z,6.93
2024-02-04T07:27:40.163Z,6.88
2024-02-04T07:30:07.424Z,7.38
2024-02-04T07:32:35.692Z,6.53
2024-02-04T07:37:29.994Z,7.72
2024-02-04T07:39:56.700Z,7.38
2024-02-04T07:42:23.591Z,9.90
2024-02-04T07:44:50.183Z,9.07
2024-02-04T07:47:17.277Z,9.45
2024-02-04T07:49:44.044Z,13.38
2024-02-04T07:52:10.818Z,9.00
2024-02-04T07:54:37.486Z,12.18
2024-02-04T07:57:04.324Z,11.52
2024-02-04T07:59:30.947Z,13.98
2024-02-04T08:01:57.602Z,10.48
2024-02-04T08:04:24.363Z,14.98
2024-02-04T08:06:51.205Z,13.38
2024-02-04T08:09:17.986Z,12.65
2024-02-04T08:11:44.598Z,15.23
2024-02-04T08:14:11.194Z,14.30
2024-02-04T08:16:37.766Z,14.23
2024-02-04T08:19:07.173Z,10.98
2024-02-04T08:21:34.004Z,12.73
2024-02-04T08:24:00.616Z,10.10
2024-02-04T08:26:27.255Z,13.25
2024-02-04T08:28:53.873Z,13.65
2024-02-04T08:31:20.822Z,11.20
2024-02-04T08:33:47.662Z,11.80
2024-02-04T08:36:14.270Z,10.27
2024-02-04T08:38:42.244Z,12.00
2024-02-04T08:41:09.011Z,10.13
2024-02-04T08:43:37.688Z,11.40
2024-02-04T08:46:10.875Z,14.68
2024-02-04T08:48:40.680Z,16.73
2024-02-04T08:51:12.739Z,13.82
2024-02-04T08:53:39.333Z,14.00
2024-02-04T08:56:09.743Z,14.35
2024-02-04T08:58:38.290Z,16.30
2024-02-04T09:01:06.193Z,20.50
2024-02-04T09:03:34.250Z,15.18
2024-02-04T09:06:01.024Z,16.88
2024-02-04T09:08:27.604Z,15.10
2024-02-04T09:10:54.159Z,14.15
2024-02-04T09:13:20.884Z,16.27
2024-02-04T09:15:47.791Z,20.83
2024-02-04T09:18:14.618Z,17.45
2024-02-04T09:20:41.377Z,20.10
2024-02-04T09:23:08.043Z,17.17
2024-02-04T09:25:34.950Z,23.10
2024-02-04T09:28:01.818Z,22.23
2024-02-04T09:30:28.606Z,18.90
2024-02-04T09:32:55.508Z,19.45
2024-02-04T09:35:22.477Z,21.02
2024-02-04T09:37:49.464Z,15.90
2024-02-04T09:40:16.237Z,18.20
2024-02-04T09:42:43.111Z,16.35
2024-02-04T09:45:11.030Z,16.60
2024-02-04T09:47:39.922Z,17.10
2024-02-04T09:50:07.158Z,16.40
2024-02-04T09:52:38.128Z,16.92
2024-02-04T09:55:08.102Z,17.70
2024-02-04T09:57:36.217Z,12.25
2024-02-04T10:00:05.922Z,14.07
2024-02-04T10:02:33.674Z,13.38
2024-02-04T10:05:00.695Z,15.63
2024-02-04T10:07:27.988Z,18.20
2024-02-04T10:09:54.897Z,15.13
2024-02-04T10:12:21.816Z,15.93
2024-02-04T10:14:50.496Z,13.48
2024-02-04T10:17:17.473Z,15.70
2024-02-04T10:19:44.266Z,15.18
2024-02-04T10:22:11.723Z,13.45
2024-02-04T10:24:38.391Z,12.13
2024-02-04T10:27:05.356Z,16.00
2024-02-04T10:29:32.096Z,12.65
2024-02-04T10:31:59.120Z,11.35
2024-02-04T10:34:31.234Z,12.63
2024-02-04T10:36:58.274Z,12.45
2024-02-04T10:39:24.947Z,13.30
2024-02-04T10:41:53.698Z,10.13
2024-02-04T10:44:25.410Z,8.27
2024-02-04T10:46:55.047Z,8.70
2024-02-04T10:49:22.775Z,8.35
2024-02-04T10:51:51.570Z,9.80
2024-02-04T10:54:22.070Z,10.88
2024-02-04T10:56:57.383Z,8.25
2024-02-04T10:59:25.855Z,8.10
2024-02-04T11:01:53.046Z,7.75
2024-02-04T11:04:20.104Z,8.80
2024-02-04T11:06:47.479Z,8.93
2024-02-04T11:09:17.391Z,6.75
2024-02-04T11:11:44.987Z,7.65
2024-02-04T11:14:15.545Z,5.95
2024-02-04T11:16:56.267Z,7.88
2024-02-04T11:19:56.512Z,5.80
2024-02-04T11:22:35.032Z,7.63
2024-02-04T11:25:34.496Z,5.85
2024-02-04T11:28:01.510Z,5.47
2024-02-04T11:30:28.580Z,6.32
2024-02-04T11:32:55.388Z,5.82
2024-02-04T11:35:24.037Z,4.57
2024-02-04T11:37:51.314Z,5.70
2024-02-04T11:40:22.266Z,5.68
2024-02-04T11:42:49.038Z,6.20
2024-02-04T11:45:16.216Z,5.40
2024-02-04T11:47:43.056Z,5.38
2024-02-04T11:50:12.036Z,5.72
2024-02-04T11:52:40.698Z,5.78
2024-02-04T11:57:36.155Z,4.85
2024-02-04T12:00:06.824Z,4.43
2024-02-04T12:02:34.273Z,5.20
2024-02-04T12:05:01.764Z,4.38
2024-02-04T12:07:30.988Z,5.32
2024-02-04T12:09:58.347Z,3.67
2024-02-04T12:12:26.209Z,4.45
2024-02-04T12:14:54.074Z,4.00
2024-02-04T12:17:21.635Z,4.43
2024-02-04T12:19:48.344Z,3.85
2024-02-04T12:22:15.237Z,5.10
2024-02-04T12:24:42.003Z,3.50
2024-02-04T12:27:08.799Z,3.35
2024-02-04T12:29:35.629Z,4.47
2024-02-04T12:32:04.848Z,4.63
2024-02-04T12:34:33.491Z,3.28
2024-02-04T12:37:04.053Z,4.15
2024-02-04T12:39:34.085Z,3.13
2024-02-04T12:42:01.120Z,3.13
2024-02-04T12:44:27.791Z,3.50
2024-02-04T12:46:54.708Z,5.57
2024-02-04T12:49:26.252Z,2.72
2024-02-04T12:51:57.317Z,3.50
2024-02-04T12:54:24.123Z,3.28
2024-02-04T12:56:51.812Z,2.17
2024-02-04T12:59:44.480Z,2.63
2024-02-04T13:04:44.303Z,4.03
2024-02-04T13:07:15.107Z,2.50
2024-02-04T13:09:42.851Z,2.95
2024-02-04T13:12:10.891Z,3.40
2024-02-04T13:14:42.536Z,2.10
2024-02-04T13:17:09.212Z,3.03
2024-02-04T13:19:37.817Z,2.30
2024-02-04T13:22:10.925Z,2.58
2024-02-04T13:24:38.387Z,2.60
2024-02-04T13:27:06.837Z,2.63
2024-02-04T13:29:33.429Z,3.08
2024-02-04T13:32:00.224Z,2.55
2024-02-04T13:34:26.980Z,1.73
2024-02-04T13:36:53.701Z,1.85
2024-02-04T13:39:20.303Z,1.45
2024-02-04T13:41:46.905Z,1.13
2024-02-04T13:44:13.635Z,1.42
2024-02-04T13:46:44.160Z,1.35
2024-02-04T13:49:13.570Z,1.10
2024-02-04T13:51:44.640Z,2.35
2024-02-04T13:54:16.445Z,1.92
2024-02-04T13:56:43.806Z,2.17
2024-02-04T13:59:10.369Z,1.52
2024-02-04T14:01:37.085Z,1.60
2024-02-04T14:04:04.057Z,1.60
2024-02-04T14:06:30.992Z,2.50
2024-02-04T14:08:57.587Z,2.28
2024-02-04T14:11:24.203Z,1.20
2024-02-04T14:13:50.755Z,0.90
2024-02-04T14:16:17.462Z,1.50
2024-02-04T14:18:47.482Z,1.58
2024-02-04T14:21:17.541Z,2.20
2024-02-04T14:23:44.390Z,2.33
2024-02-04T14:26:18.765Z,0.63
2024-02-04T14:31:12.080Z,0.75
2024-02-04T14:33:38.921Z,1.50
2024-02-04T14:36:05.950Z,1.67
2024-02-04T14:38:32.978Z,1.85
2024-02-04T14:40:59.930Z,1.10
2024-02-04T14:43:26.992Z,1.77
2024-02-04T14:45:53.608Z,1.20
2024-02-04T14:48:20.360Z,1.38
2024-02-04T14:50:48.336Z,1.33
2024-02-04T14:53:15.139Z,3.10
2024-02-04T14:55:41.775Z,1.80
2024-02-04T14:58:08.399Z,0.77
2024-02-04T15:00:35.152Z,1.55
2024-02-04T15:03:01.875Z,1.67
2024-02-04T15:05:28.583Z,1.30
2024-02-04T15:07:58.248Z,0.95
2024-02-04T15:10:24.887Z,2.22
2024-02-04T15:12:53.756Z,1.52
2024-02-04T15:15:21.203Z,1.27
2024-02-04T15:17:48.187Z,1.77
2024-02-04T15:20:19.188Z,1.10
2024-02-04T15:22:46.616Z,1.00
2024-02-04T15:25:16.000Z,1.83
2024-02-04T15:27:45.702Z,1.95
2024-02-04T15:30:13.906Z,2.45
2024-02-04T15:35:08.304Z,1.27
2024-02-04T15:37:34.957Z,1.45
2024-02-04T15:40:01.875Z,1.50
2024-02-04T15:42:28.613Z,1.83
2024-02-04T15:44:55.202Z,3.42
2024-02-04T15:47:24.160Z,1.60
2024-02-04T15:49:51.159Z,1.80
2024-02-04T15:52:18.154Z,2.30
2024-02-04T15:54:45.025Z,2.28
2024-02-04T15:57:14.256Z,1.48
2024-02-04T15:59:40.857Z,1.67
2024-02-04T16:02:11.533Z,1.08
2024-02-04T16:04:38.683Z,0.60
2024-02-04T16:07:06.088Z,2.65
2024-02-04T16:09:33.000Z,2.10
2024-02-04T16:12:06.856Z,1.25
2024-02-04T16:14:38.171Z,1.50
2024-02-04T16:17:05.733Z,1.17
2024-02-04T16:19:33.357Z,3.40
2024-02-04T16:22:00.010Z,2.75
2024-02-04T16:24:26.706Z,3.28
2024-02-04T16:26:53.449Z,3.83
2024-02-04T16:29:20.047Z,1.30
2024-02-04T16:31:46.613Z,1.38
2024-02-04T16:34:13.313Z,3.65
2024-02-04T16:36:40.027Z,5.25
2024-02-04T16:39:06.827Z,6.90
2024-02-04T16:41:33.484Z,3.97
2024-02-04T16:44:00.031Z,4.30
2024-02-04T16:46:26.587Z,3.38
2024-02-04T16:48:53.328Z,4.43
2024-02-04T16:51:19.978Z,5.35
2024-02-04T16:53:47.410Z,6.47
2024-02-04T16:56:19.754Z,5.28
2024-02-04T16:58:46.335Z,4.63
2024-02-04T17:01:13.018Z,5.85
2024-02-04T17:03:40.111Z,6.57
2024-02-04T17:06:09.390Z,5.68
2024-02-04T17:08:36.572Z,7.40
2024-02-04T17:11:03.404Z,7.22
2024-02-04T17:13:30.185Z,8.40
2024-02-04T17:15:57.196Z,9.25
2024-02-04T17:18:46.025Z,6.72
2024-02-04T17:21:14.292Z,7.30
2024-02-04T17:26:10.196Z,8.20
2024-02-04T17:28:37.154Z,6.53
2024-02-04T17:31:04.097Z,9.18
2024-02-04T17:33:31.134Z,6.10
2024-02-04T17:35:57.809Z,11.95
2024-02-04T17:38:24.703Z,9.68
2024-02-04T17:40:51.274Z,10.50
2024-02-04T17:43:18.947Z,12.13
2024-02-04T17:45:45.639Z,12.07
2024-02-04T17:48:12.423Z,12.10
2024-02-04T17:50:38.992Z,11.00
2024-02-04T17:53:07.665Z,11.40
2024-02-04T17:55:36.101Z,12.07
2024-02-04T17:58:04.504Z,13.15
2024-02-04T18:00:31.606Z,11.93
2024-02-04T18:02:58.995Z,14.60
2024-02-04T18:05:25.860Z,15.57
2024-02-04T18:07:54.166Z,13.80
2024-02-04T18:10:22.274Z,14.85
2024-02-04T18:12:49.099Z,14.65
2024-02-04T18:15:15.836Z,14.32
2024-02-04T18:17:44.098Z,21.02
2024-02-04T18:20:13.069Z,14.93
2024-02-04T18:22:39.738Z,16.75
2024-02-04T18:25:11.650Z,15.75
2024-02-04T18:27:43.134Z,18.23
2024-02-04T18:30:12.348Z,16.67
2024-02-04T18:32:39.199Z,21.17
2024-02-04T18:35:06.566Z,17.42
2024-02-04T18:37:33.634Z,17.58
2024-02-04T18:40:00.630Z,19.30
2024-02-04T18:42:27.734Z,17.23
2024-02-04T18:44:55.581Z,18.80
2024-02-04T18:47:22.572Z,19.38
2024-02-04T18:49:49.309Z,22.67
2024-02-04T18:52:16.057Z,18.65
2024-02-04T18:54:42.719Z,19.27
2024-02-04T18:57:09.702Z,20.33
2024-02-04T18:59:36.990Z,23.15
2024-02-04T19:02:03.900Z,20.15
2024-02-04T19:04:30.855Z,19.10
2024-02-04T19:07:00.669Z,23.25
2024-02-04T19:09:27.694Z,19.88
2024-02-04T19:11:54.300Z,26.08
2024-02-04T19:14:23.064Z,25.08
2024-02-04T19:16:49.718Z,27.52
2024-02-04T19:19:16.418Z,29.98
2024-02-04T19:21:44.576Z,23.67
2024-02-04T19:24:11.189Z,26.85
2024-02-04T19:26:37.822Z,28.38
2024-02-04T19:29:04.422Z,24.05
2024-02-04T19:31:31.001Z,26.15
2024-02-04T19:33:57.787Z,28.98
2024-02-04T19:36:24.463Z,26.50
2024-02-04T19:38:51.068Z,22.85
2024-02-04T19:41:17.679Z,21.17
2024-02-04T19:43:44.271Z,21.85
2024-02-04T19:46:10.911Z,26.02
2024-02-04T19:48:37.700Z,22.65
2024-02-04T19:51:05.104Z,22.33
2024-02-04T19:53:31.759Z,22.08
2024-02-04T19:55:58.529Z,20.65
2024-02-04T19:58:25.162Z,24.40
2024-02-04T20:00:51.848Z,21.77
2024-02-04T20:03:18.583Z,17.75
2024-02-04T20:05:45.424Z,17.38
2024-02-04T20:08:12.016Z,20.15
2024-02-04T20:10:38.581Z,19.70
2024-02-04T20:13:05.300Z,21.98
2024-02-04T20:15:32.140Z,17.42
2024-02-04T20:17:59.739Z,20.75
2024-02-04T20:20:27.845Z,16.58
2024-02-04T20:22:57.155Z,18.45
2024-02-04T20:25:28.667Z,18.77
2024-02-04T20:27:57.252Z,19.48
2024-02-04T20:30:30.003Z,18.00
2024-02-04T20:32:57.909Z,21.23
2024-02-04T20:35:28.981Z,18.58
2024-02-04T20:38:02.024Z,17.38
2024-02-04T20:40:28.746Z,17.15
2024-02-04T20:42:55.626Z,23.27
2024-02-04T20:45:22.570Z,19.25
2024-02-04T20:47:50.372Z,21.00
2024-02-04T20:50:17.707Z,18.30
2024-02-04T20:52:44.628Z,18.13
2024-02-04T20:55:11.413Z,18.38
2024-02-04T20:57:39.018Z,18.83
2024-02-04T21:00:08.033Z,19.63
2024-02-04T21:02:35.041Z,16.25
2024-02-04T21:05:01.858Z,16.10
2024-02-04T21:07:28.810Z,15.35
2024-02-04T21:09:55.610Z,16.83
2024-02-04T21:12:23.355Z,13.30
2024-02-04T21:14:50.232Z,16.55
2024-02-04T21:17:16.804Z,15.70
2024-02-04T21:19:43.610Z,14.88
2024-02-04T21:22:10.288Z,15.13
2024-02-04T21:24:37.011Z,13.73
2024-02-04T21:27:03.967Z,13.75
2024-02-04T21:29:30.548Z,16.08
2024-02-04T21:31:57.424Z,14.27
2024-02-04T21:34:24.154Z,14.07
2024-02-04T21:36:50.966Z,15.85
2024-02-04T21:39:19.425Z,13.68
2024-02-04T21:41:46.146Z,12.45
2024-02-04T21:44:14.399Z,11.82
2024-02-04T21:46:47.145Z,13.00
2024-02-04T21:49:14.066Z,11.45
2024-02-04T21:51:40.859Z,12.75
2024-02-04T21:54:07.474Z,12.95
2024-02-04T21:56:34.158Z,10.48
2024-02-04T21:59:01.554Z,11.18
2024-02-04T22:01:28.343Z,10.60
2024-02-04T22:03:55.095Z,12.15
2024-02-04T22:06:21.768Z,9.88
2024-02-04T22:08:49.043Z,11.55
2024-02-04T22:11:16.160Z,10.18
2024-02-04T22:13:42.715Z,10.02
2024-02-04T22:16:10.041Z,10.07
2024-02-04T22:18:36.823Z,10.13
2024-02-04T22:21:04.507Z,12.07
2024-02-04T22:23:31.616Z,10.27
2024-02-04T22:25:58.249Z,9.85
2024-02-04T22:28:24.857Z,10.95
2024-02-04T22:30:51.740Z,10.93
2024-02-04T22:33:18.477Z,9.85
2024-02-04T22:35:45.046Z,9.73
2024-02-04T22:38:11.766Z,10.02
2024-02-04T22:40:38.352Z,10.70
2024-02-04T22:43:05.621Z,11.45
2024-02-04T22:45:32.366Z,8.73
2024-02-04T22:47:58.987Z,9.27
2024-02-04T22:50:25.648Z,9.95
2024-02-04T22:52:52.791Z,7.22
2024-02-04T22:55:19.590Z,9.68
2024-02-04T22:57:46.311Z,8.20
2024-02-04T23:00:27.636Z,8.43
2024-02-04T23:02:58.916Z,9.98
2024-02-04T23:05:26.456Z,10.23
2024-02-04T23:07:57.254Z,9.27
2024-02-04T23:10:25.805Z,8.20
2024-02-04T23:12:52.646Z,7.13
2024-02-04T23:15:20.422Z,8.68
2024-02-04T23:17:47.088Z,7.18
2024-02-04T23:20:13.784Z,8.73
2024-02-04T23:22:40.666Z,6.57
2024-02-04T23:25:07.835Z,6.75
2024-02-04T23:27:34.580Z,10.23
2024-02-04T23:30:01.558Z,8.05
2024-02-04T23:32:28.160Z,9.20
2024-02-04T23:34:55.347Z,8.85
2024-02-04T23:37:22.101Z,7.68
2024-02-04T23:39:48.721Z,10.25
2024-02-04T23:42:15.368Z,9.77
2024-02-04T23:44:41.959Z,8.57
2024-02-04T23:47:08.600Z,7.78
2024-02-04T23:49:35.227Z,7.80
2024-02-04T23:52:02.227Z,8.45
2024-02-04T23:54:28.819Z,10.52
2024-02-04T23:56:55.403Z,9.77
2024-02-04T23:59:22.040Z,9.73
